Flight Track Log - Related Links

Times and Time Zones

All times are in EDT time to prevent confusion due to time zone crossing. See the VNR160 flight status page for this flight to view local times or setup timezone preferences in your user account.

Time Position Orientation Groundspeed Altitude Reporting Facility
EDT Latitude Longitude Course Direction KTS MPH feet Rate Location/Type
Wed 05:51:40 PM 39.6000 -104.8667 333° Northwest 162 186 6,900  Level Denver TRACON
Wed 05:52:40 PM 39.6500 -104.9000 333° Northwest 173 199 8,900 2,041 Climbing Denver TRACON
Wed 05:53:17 PM 39.6653 -104.9097 334° Northwest 171 197 10,200 2,061 Climbing Denver Center
Wed 05:54:19 PM 39.7175 -104.9081 North 176 203 12,300 2,129 Climbing Denver Center
Wed 05:55:21 PM 39.7583 -104.8583 43° Northeast 207 238 14,600 2,081 Climbing Denver Center
Wed 05:56:23 PM 39.7678 -104.7744 82° East 224 258 16,600 1,742 Climbing Denver Center
Wed 05:57:25 PM 39.7781 -104.6908 81° East 237 273 18,200 1,645 Climbing Denver Center
Wed 05:58:27 PM 39.7894 -104.6003 81° East 239 275 20,000 1,762 Climbing Denver Center
Wed 05:59:31 PM 39.8006 -104.5031 82° East 254 292 21,900 1,619 Climbing Denver Center
Wed 06:00:33 PM 39.8114 -104.4053 82° East 272 313 23,400 1,548 Climbing Denver Center
Wed 06:01:35 PM 39.8228 -104.3039 82° East 278 320 25,100 1,500 Climbing Denver Center
Wed 06:02:37 PM 39.8342 -104.1978 82° East 291 335 26,500 1,355 Climbing Denver Center
Wed 06:03:39 PM 39.8467 -104.0853 82° East 309 356 27,900 1,306 Climbing Denver Center
Wed 06:04:41 PM 39.8581 -103.9728 82° East 310 357 29,200 1,210 Climbing Denver Center
Wed 06:05:43 PM 39.8728 -103.8378 82° East 321 369 30,400 1,008 Climbing Denver Center
Wed 06:06:46 PM 39.8847 -103.7194 82° East 323 372 31,300 816 Climbing Denver Center
Wed 06:07:48 PM 39.8947 -103.5983 84° East 331 381 32,100 823 Climbing Denver Center
Wed 06:08:50 PM 39.9025 -103.4736 85° East 341 392 33,000 435 Climbing Denver Center
Wed 06:09:52 PM 39.9117 -103.3464 85° East 351 404 33,000  Level Denver Center
Wed 06:10:54 PM 39.9217 -103.2078 85° East 378 435 33,000  Level Denver Center
Wed 06:11:56 PM 39.9308 -103.0633 85° East 395 455 33,000  Level Denver Center
Wed 06:12:58 PM 39.9406 -102.9161 85° East 405 466 33,000  Level Denver Center
Wed 06:14:00 PM 39.9517 -102.7394 85° East 414 476 33,000  Level Denver Center
Wed 06:15:02 PM 39.9617 -102.5914 85° East 418 481 33,000  Level Denver Center
Wed 06:16:04 PM 39.9708 -102.4450 85° East 422 486 33,000  Level Denver Center
Wed 06:17:06 PM 39.9864 -102.2753 83° East 424 488 33,000  Level Denver Center
Wed 06:18:08 PM 40.0067 -102.1328 79° East 421 484 33,000  Level Denver Center
Wed 06:19:10 PM 40.0294 -101.9656 80° East 420 483 33,000  Level Denver Center
Wed 06:20:12 PM 40.0494 -101.8219 80° East 421 484 33,000  Level Denver Center
Wed 06:21:14 PM 40.0711 -101.6528 80° East 424 488 33,000  Level Denver Center
Wed 06:22:16 PM 40.0894 -101.5083 81° East 423 487 33,000  Level Denver Center
Wed 06:23:18 PM 40.1117 -101.3389 80° East 425 489 33,000  Level Denver Center
Wed 06:24:20 PM 40.1292 -101.1958 81° East 420 483 33,000  Level Denver Center
Wed 06:25:22 PM 40.1494 -101.0303 81° East 416 479 33,000  Level Denver Center
Wed 06:26:24 PM 40.1678 -100.8900 80° East 411 473 33,000  Level Denver Center
Wed 06:27:27 PM 40.1883 -100.7247 81° East 414 476 33,000  Level Denver Center
Wed 06:28:29 PM 40.2047 -100.5856 81° East 408 470 33,000  Level Denver Center
Wed 06:29:31 PM 40.2150 -100.4158 85° East 419 482 33,000  Level Denver Center
Wed 06:30:33 PM 40.2239 -100.2703 85° East 421 484 33,000  Level Denver Center
Wed 06:31:35 PM 40.2344 -100.0989 85° East 425 489 33,000  Level Denver Center
Wed 06:32:37 PM 40.2439 -99.9517 85° East 425 489 33,000  Level Denver Center
Wed 06:33:39 PM 40.2533 -99.7767 86° East 429 494 33,000  Level Denver Center
Wed 06:34:41 PM 40.2617 -99.6194 86° East 433 498 33,000  Level Denver Center
Wed 06:35:43 PM 40.2703 -99.4639 86° East 431 496 33,000  Level Denver Center
Wed 06:36:45 PM 40.2789 -99.3058 86° East 436 502 33,000  Level Denver Center
Wed 06:37:47 PM 40.2864 -99.1483 86° East 438 504 33,000  Level Denver Center
Wed 06:38:49 PM 40.2964 -98.9581 86° East 439 505 33,000  Level Denver Center
Wed 06:39:51 PM 40.3036 -98.7989 87° East 440 506 33,000  Level Denver Center
Wed 06:40:34 PM 40.3089 -98.7050 86° East 439 505 33,000  Level Minneapolis Center
Wed 06:41:36 PM 40.3164 -98.5447 86° East 441 507 33,000  Level Minneapolis Center
Wed 06:42:38 PM 40.3236 -98.3508 87° East 445 512 33,000  Level Minneapolis Center
Wed 06:43:53 PM 40.3311 -98.1886 86° East 447 514 33,000  Level Minneapolis Center
Wed 06:44:55 PM 40.3397 -97.9939 87° East 448 516 33,000  Level Minneapolis Center
Wed 06:45:57 PM 40.3464 -97.8306 87° East 449 517 33,000  Level Minneapolis Center
Wed 06:46:59 PM 40.3514 -97.6672 88° East 449 517 33,000  Level Minneapolis Center
Wed 06:48:13 PM 40.3597 -97.4708 87° East 450 518 33,000  Level Minneapolis Center
Wed 06:49:16 PM 40.3647 -97.2914 88° East 452 520 33,000  Level Minneapolis Center
Wed 06:50:17 PM 40.3697 -97.1608 87° East 451 519 33,000  Level Minneapolis Center
Wed 06:51:20 PM 40.3778 -96.9292 87° East 454 522 33,000  Level Minneapolis Center
Wed 06:52:22 PM 40.3831 -96.7653 88° East 454 522 33,000  Level Minneapolis Center
Wed 06:53:24 PM 40.3869 -96.6006 88° East 454 522 33,000  Level Minneapolis Center
Wed 06:54:26 PM 40.3925 -96.4361 87° East 454 522 33,000  Level Minneapolis Center
Wed 06:55:28 PM 40.3969 -96.2711 88° East 454 522 33,000  Level Minneapolis Center
Wed 06:56:30 PM 40.4006 -96.0753 89° East 451 519 33,000  Level Minneapolis Center
Wed 06:57:32 PM 40.4056 -95.9086 88° East 457 526 33,000  Level Minneapolis Center
Wed 06:58:34 PM 40.4092 -95.7408 88° East 461 531 33,000  Level Minneapolis Center
Wed 06:59:36 PM 40.4128 -95.5761 88° East 457 526 33,000  Level Minneapolis Center
Wed 07:00:38 PM 40.4150 -95.4092 89° East 458 527 33,000  Level Minneapolis Center
Wed 07:01:40 PM 40.4197 -95.2406 88° East 462 532 33,000  Level Minneapolis Center
Wed 07:02:42 PM 40.4228 -95.0394 89° East 462 532 33,000  Level Minneapolis Center
Wed 07:03:44 PM 40.4253 -94.8722 89° East 461 531 33,000  Level Minneapolis Center
Wed 07:04:47 PM 40.4283 -94.7044 89° East 462 532 33,000  Level Minneapolis Center
Wed 07:05:49 PM 40.4294 -94.5247 89° East 461 531 33,000  Level Minneapolis Center
Wed 07:06:51 PM 40.4311 -94.3581 89° East 460 529 33,000  Level Minneapolis Center
Wed 07:07:53 PM 40.4311 -94.1911 90° East 461 531 33,000  Level Minneapolis Center
Wed 07:08:55 PM 40.4336 -94.0247 89° East 461 531 33,000  Level Minneapolis Center
Wed 07:09:57 PM 40.4339 -93.8569 90° East 462 532 33,000  Level Minneapolis Center
Wed 07:10:59 PM 40.4342 -93.6556 90° East 462 532 33,000  Level Minneapolis Center
Wed 07:12:01 PM 40.4361 -93.4883 89° East 462 532 33,000  Level Minneapolis Center
Wed 07:13:03 PM 40.4342 -93.3225 91° East 459 528 33,000  Level Minneapolis Center
Wed 07:13:29 PM 40.4339 -93.2531 90° East 461 531 33,000  Level Kansas City Center
Wed 07:14:31 PM 40.4325 -93.0858 91° East 461 531 33,000  Level Kansas City Center
Wed 07:15:32 PM 40.4333 -92.9083 90° East 462 532 33,000  Level Kansas City Center
Wed 07:16:35 PM 40.4328 -92.7206 90° East 462 532 33,000  Level Kansas City Center
Wed 07:17:36 PM 40.4319 -92.5508 90° East 466 536 33,000  Level Kansas City Center
Wed 07:18:39 PM 40.4322 -92.3814 90° East 465 535 33,000  Level Kansas City Center
Wed 07:19:40 PM 40.4300 -92.1981 91° East 468 539 33,000  Level Kansas City Center
Wed 07:20:44 PM 40.4278 -92.0278 91° East 468 539 33,000  Level Kansas City Center
Wed 07:21:44 PM 40.4256 -91.8581 91° East 468 539 33,000  Level Kansas City Center
Wed 07:22:48 PM 40.4231 -91.6872 91° East 470 541 33,000  Level Kansas City Center
Wed 07:23:09 PM 40.4231 -91.6192 90° East 471 542 33,000  Level Chicago Center
Wed 07:24:11 PM 40.4208 -91.4142 91° East 472 543 33,000  Level Chicago Center
Wed 07:25:13 PM 40.4178 -91.2539 91° East 469 540 33,000  Level Chicago Center
Wed 07:26:15 PM 40.4147 -91.0831 91° East 470 541 33,000  Level Chicago Center
Wed 07:27:17 PM 40.4108 -90.9131 92° East 469 540 33,000  Level Chicago Center
Wed 07:28:20 PM 40.4072 -90.7086 91° East 468 539 33,000  Level Chicago Center
Wed 07:29:22 PM 40.4033 -90.5381 92° East 469 540 33,000  Level Chicago Center
Wed 07:30:24 PM 40.3992 -90.3681 92° East 470 541 33,000  Level Chicago Center
Wed 07:31:26 PM 40.3939 -90.1994 92° East 467 537 33,000  Level Chicago Center
Wed 07:32:28 PM 40.3892 -90.0297 92° East 470 541 33,000  Level Chicago Center
Wed 07:33:30 PM 40.3822 -89.8269 93° East 469 540 33,000  Level Chicago Center
Wed 07:34:32 PM 40.3786 -89.6578 92° East 471 542 33,000  Level Chicago Center
Wed 07:35:34 PM 40.3725 -89.4883 93° East 470 541 33,000  Level Chicago Center
Wed 07:36:36 PM 40.3667 -89.3175 93° East 472 543 33,000  Level Chicago Center
Wed 07:37:38 PM 40.3608 -89.1467 93° East 472 543 33,000  Level Chicago Center
Wed 07:38:41 PM 40.3539 -88.9400 92° East 474 545 33,000  Level Chicago Center
Wed 07:39:43 PM 40.3469 -88.7683 93° East 474 545 33,000 -242 Level Chicago Center
Wed 07:40:45 PM 40.3400 -88.5947 93° East 478 550 32,500 -726 Descending Chicago Center
Wed 07:41:47 PM 40.3322 -88.4033 93° East 488 562 31,500 -968 Descending Chicago Center
Wed 07:42:49 PM 40.3247 -88.2261 93° East 491 565 30,500 -968 Descending Chicago Center
Wed 07:43:51 PM 40.3050 -88.0528 98° East 488 562 29,500 -968 Descending Chicago Center
Wed 07:44:53 PM 40.2806 -87.8817 101° East 482 555 28,500 -1,101 Descending Chicago Center
Wed 07:45:40 PM 40.2581 -87.7283 101° East 479 551 27,500 -1,065 Descending Indianapolis Center
Wed 07:46:57 PM 40.2333 -87.5131 98° East 467 537 26,300 -993 Descending Chicago Center
Wed 07:47:59 PM 40.2289 -87.3381 92° East 452 520 25,200 -1,016 Descending Chicago Center
Wed 07:49:01 PM 40.2314 -87.1722 89° East 452 520 24,200 -1,200 Descending Chicago Center
Wed 07:50:04 PM 40.2342 -87.0128 89° East 439 505 22,700 -1,488 Descending Chicago Center
Wed 07:51:06 PM 40.2358 -86.8636 89° East 413 475 21,100 -1,403 Descending Chicago Center
Wed 07:52:08 PM 40.2383 -86.7211 89° East 393 452 19,800 -1,210 Descending Chicago Center
Wed 07:53:10 PM 40.2392 -86.5828 90° East 380 437 18,600 -1,113 Descending Chicago Center
Wed 07:54:12 PM 40.2400 -86.4492 89° East 368 423 17,500 -1,210 Descending Chicago Center
Wed 07:55:14 PM 40.2414 -86.2944 89° East 363 418 16,100 -1,306 Descending Chicago Center
Wed 07:56:16 PM 40.2425 -86.1661 89° East 352 405 14,800 -1,548 Descending Chicago Center
Wed 07:57:18 PM 40.2425 -86.0425 90° East 341 392 12,900 -1,790 Descending Chicago Center
Wed 07:58:20 PM 40.2433 -85.9233 89° East 328 377 11,100 -1,790 Descending Chicago Center
Wed 07:59:22 PM 40.2428 -85.8089 90° East 315 362 9,200 -2,109 Descending Chicago Center
Wed 08:01:05 PM 40.2431 -85.6375 90° East 285 328 5,300 -1,855 Descending Indianapolis Center
Wed 08:02:07 PM 40.2433 -85.5436 90° East 270 311 4,100 -1,258 Descending Indianapolis Center
Wed 08:03:09 PM 40.2322 -85.4336 98° East 263 303 2,700 -976 Descending Indianapolis Center
Wed 08:04:10 PM 40.1958 -85.3919 139° Southeast 202 232 2,100 -194 Descending Indianapolis Center
Wed 08:06:15 PM 40.2167 -85.3667 43° Northeast 148 170 2,100  Level Indianapolis TRACON

Login

Don't have an account? Register now (free) for customized features, flight alerts, and more!